Time;durP1;ratioP1;P1;durP2;ratioP2;P2;SDS_P1;SDS_P2;PMS_P1;PMS_P2;Temp;Humidity;BMP_temperature;BMP_pressure;BME280_temperature;BME280_humidity;BME280_pressure;Samples;Min_cycle;Max_cycle;Signal;HPM_P1;HPM_P2
2022/03/29 00:01:37;;;;;;;15.53;13.93;;;7.50;1.00;;;;;;6265362;28;20784;-55
2022/03/29 00:04:40;;;;;;;15.80;14.13;;;7.40;1.00;;;;;;6278435;28;20578;-52
2022/03/29 00:07:44;;;;;;;16.83;14.97;;;7.50;1.00;;;;;;6259467;28;20233;-54
2022/03/29 00:10:46;;;;;;;19.40;14.80;;;7.40;1.00;;;;;;6265201;28;20269;-54
2022/03/29 00:13:51;;;;;;;16.43;14.23;;;7.40;1.00;;;;;;6276124;28;20316;-55
2022/03/29 00:16:54;;;;;;;17.13;15.33;;;7.30;1.00;;;;;;6285509;28;20842;-56
2022/03/29 00:19:57;;;;;;;20.27;14.83;;;7.20;1.00;;;;;;6261354;28;20523;-53
2022/03/29 00:22:59;;;;;;;17.40;14.90;;;7.30;1.00;;;;;;6269205;28;20239;-54
2022/03/29 00:26:02;;;;;;;17.93;15.90;;;7.30;1.00;;;;;;6273746;28;20498;-54
2022/03/29 00:29:08;;;;;;;18.90;14.83;;;7.30;1.00;;;;;;6257282;28;20234;-54
2022/03/29 00:32:12;;;;;;;22.87;15.70;;;7.30;1.00;;;;;;6258427;28;20455;-53
2022/03/29 00:35:15;;;;;;;18.33;14.83;;;7.70;1.00;;;;;;6274969;28;21113;-55
2022/03/29 00:38:18;;;;;;;17.47;15.30;;;7.30;1.00;;;;;;6258370;28;20613;-54
2022/03/29 00:41:21;;;;;;;20.40;16.47;;;7.30;1.00;;;;;;6266209;28;20242;-54
2022/03/29 00:44:30;;;;;;;18.07;14.93;;;7.30;1.00;;;;;;6278379;28;20252;-54
2022/03/29 00:47:33;;;;;;;19.33;15.57;;;7.30;1.00;;;;;;6283757;28;20525;-54
2022/03/29 00:50:37;;;;;;;17.70;15.73;;;7.30;1.00;;;;;;6283677;28;20294;-55
2022/03/29 00:53:41;;;;;;;17.50;15.60;;;7.40;1.00;;;;;;6264269;28;20234;-53
2022/03/29 00:56:45;;;;;;;18.20;15.40;;;7.40;1.00;;;;;;6277113;28;20326;-55
2022/03/29 00:59:50;;;;;;;18.27;16.00;;;7.40;1.00;;;;;;6279057;28;20321;-54
2022/03/29 01:02:53;;;;;;;18.23;15.33;;;7.40;1.00;;;;;;6269705;28;20282;-53
2022/03/29 01:06:05;;;;;;;18.37;15.50;;;7.40;1.00;;;;;;6280246;28;20260;-62
2022/03/29 01:09:08;;;;;;;18.20;15.43;;;7.50;1.00;;;;;;6270921;28;20373;-54
2022/03/29 01:12:11;;;;;;;17.20;15.23;;;7.40;1.00;;;;;;6280200;28;20434;-55
2022/03/29 01:15:16;;;;;;;17.37;15.13;;;7.40;1.00;;;;;;6278208;28;20256;-56
2022/03/29 01:18:18;;;;;;;17.13;15.40;;;7.50;1.00;;;;;;6263917;28;20323;-55
2022/03/29 01:21:25;;;;;;;21.30;15.97;;;7.50;1.00;;;;;;6264177;28;20611;-54
2022/03/29 01:24:30;;;;;;;17.27;14.73;;;7.50;1.00;;;;;;6275171;28;20245;-54
2022/03/29 01:27:34;;;;;;;17.73;14.80;;;7.50;1.00;;;;;;6287485;28;20233;-54
2022/03/29 01:30:36;;;;;;;17.33;14.13;;;7.60;1.00;;;;;;6280567;28;20237;-53
2022/03/29 01:33:41;;;;;;;17.33;15.53;;;7.50;1.00;;;;;;6279320;28;20229;-55
2022/03/29 01:36:43;;;;;;;17.10;14.40;;;7.60;1.00;;;;;;6283596;28;20241;-55
2022/03/29 01:39:47;;;;;;;16.57;14.80;;;7.50;1.00;;;;;;6286770;28;20359;-55
2022/03/29 01:42:52;;;;;;;16.97;15.23;;;7.50;1.00;;;;;;6279384;28;20230;-55
2022/03/29 01:45:54;;;;;;;18.87;16.77;;;7.50;1.00;;;;;;6286486;28;20448;-57
2022/03/29 01:48:59;;;;;;;22.27;16.57;;;7.50;1.00;;;;;;6286838;28;20318;-55
2022/03/29 01:52:02;;;;;;;20.43;15.73;;;7.50;1.00;;;;;;6288988;28;20266;-55
2022/03/29 01:55:07;;;;;;;17.03;15.07;;;7.50;1.00;;;;;;6288713;28;20348;-55
2022/03/29 01:58:11;;;;;;;18.70;15.70;;;7.50;1.00;;;;;;6277304;28;20412;-54
2022/03/29 02:01:16;;;;;;;18.63;16.37;;;7.60;1.00;;;;;;6263079;28;20241;-55
2022/03/29 02:04:19;;;;;;;19.53;16.00;;;7.40;1.00;;;;;;6272574;28;20753;-55
2022/03/29 02:07:23;;;;;;;19.97;16.97;;;7.40;1.00;;;;;;6271327;28;20339;-55
2022/03/29 02:10:27;;;;;;;18.43;15.07;;;7.40;1.00;;;;;;6266672;28;20245;-55
2022/03/29 02:13:30;;;;;;;21.57;16.80;;;7.50;1.00;;;;;;6287568;28;20284;-55
2022/03/29 02:16:33;;;;;;;22.50;16.60;;;7.40;1.00;;;;;;6265419;28;20249;-55
2022/03/29 02:19:36;;;;;;;19.37;16.60;;;7.40;1.00;;;;;;6277110;28;20237;-54
2022/03/29 02:22:38;;;;;;;18.63;16.63;;;7.40;1.00;;;;;;6280333;28;20732;-54
2022/03/29 02:25:45;;;;;;;20.63;16.57;;;7.30;1.00;;;;;;6262689;28;20318;-54
2022/03/29 02:28:48;;;;;;;19.27;16.10;;;7.40;1.00;;;;;;6258862;28;20315;-55
2022/03/29 02:31:51;;;;;;;20.00;17.73;;;7.30;1.00;;;;;;6262687;28;20238;-53
2022/03/29 02:34:53;;;;;;;19.57;17.47;;;7.30;1.00;;;;;;6276850;28;20391;-54
2022/03/29 02:38:07;;;;;;;25.37;18.27;;;7.30;1.00;;;;;;6273957;28;20279;-54
2022/03/29 02:41:11;;;;;;;20.70;18.07;;;7.30;1.00;;;;;;6272014;28;20234;-56
2022/03/29 02:44:14;;;;;;;22.40;17.83;;;7.30;1.00;;;;;;6278987;28;20245;-53
2022/03/29 02:47:16;;;;;;;23.80;17.80;;;7.30;1.00;;;;;;6269621;28;20280;-55
2022/03/29 02:50:20;;;;;;;27.03;19.23;;;7.30;1.00;;;;;;6261062;28;20914;-55
2022/03/29 02:53:23;;;;;;;21.33;17.73;;;7.40;1.00;;;;;;6259749;28;20841;-54
2022/03/29 02:56:28;;;;;;;20.93;18.30;;;7.20;1.00;;;;;;6277350;28;20852;-55
2022/03/29 02:59:30;;;;;;;20.07;17.50;;;7.20;1.00;;;;;;6284714;28;20245;-55
2022/03/29 03:02:33;;;;;;;23.77;18.60;;;7.40;1.00;;;;;;6286064;28;20740;-55
2022/03/29 03:05:36;;;;;;;22.13;18.37;;;7.30;1.00;;;;;;6278793;28;20419;-56
2022/03/29 03:08:39;;;;;;;21.57;17.73;;;7.30;1.00;;;;;;6286312;28;20433;-54
2022/03/29 03:11:44;;;;;;;22.33;18.67;;;7.40;1.00;;;;;;6285886;28;20233;-54
2022/03/29 03:14:48;;;;;;;21.70;19.13;;;7.30;1.00;;;;;;6265651;28;20229;-52
2022/03/29 03:17:52;;;;;;;21.77;17.57;;;7.40;1.00;;;;;;6265036;28;20337;-55
2022/03/29 03:20:55;;;;;;;24.30;19.00;;;7.30;1.00;;;;;;6285847;28;20314;-55
2022/03/29 03:23:58;;;;;;;23.10;18.70;;;7.30;1.00;;;;;;6284607;28;20648;-54
2022/03/29 03:27:02;;;;;;;19.93;17.80;;;7.30;1.00;;;;;;6275735;28;20333;-56
2022/03/29 03:30:07;;;;;;;22.10;18.23;;;7.30;1.00;;;;;;6268580;28;20237;-55
2022/03/29 03:33:10;;;;;;;24.73;19.37;;;7.20;1.00;;;;;;6269775;28;20325;-55
2022/03/29 03:36:13;;;;;;;24.77;19.80;;;7.30;1.00;;;;;;6285151;28;20849;-55
2022/03/29 03:39:15;;;;;;;26.47;18.77;;;7.20;1.00;;;;;;6283614;28;20242;-56
2022/03/29 03:42:20;;;;;;;28.47;20.43;;;7.10;1.00;;;;;;6284868;28;20259;-54
2022/03/29 03:45:22;;;;;;;26.70;19.93;;;7.30;1.00;;;;;;6282332;28;20785;-54
2022/03/29 03:48:25;;;;;;;27.97;19.23;;;7.20;1.00;;;;;;6275162;28;20256;-55
2022/03/29 03:51:28;;;;;;;23.43;19.00;;;7.20;1.00;;;;;;6282755;28;20245;-53
2022/03/29 03:54:33;;;;;;;20.97;18.27;;;7.20;1.00;;;;;;6283401;28;20229;-54
2022/03/29 03:57:37;;;;;;;22.40;19.23;;;7.30;1.00;;;;;;6283613;28;20624;-55
2022/03/29 04:00:40;;;;;;;26.50;18.63;;;7.30;1.00;;;;;;6279085;28;20701;-55
2022/03/29 04:03:46;;;;;;;21.80;18.90;;;7.30;1.00;;;;;;6283801;28;20241;-56
2022/03/29 04:06:49;;;;;;;28.37;20.70;;;7.30;1.00;;;;;;6285155;28;20855;-53
2022/03/29 04:09:52;;;;;;;29.87;20.17;;;7.30;1.00;;;;;;6283448;28;20314;-55
2022/03/29 04:12:56;;;;;;;24.93;20.00;;;7.30;1.00;;;;;;6284725;28;20284;-55
2022/03/29 04:15:59;;;;;;;26.97;21.07;;;7.30;1.00;;;;;;6274260;28;20652;-51
2022/03/29 04:19:05;;;;;;;25.40;20.07;;;7.20;1.00;;;;;;6289965;28;20646;-54
2022/03/29 04:22:08;;;;;;;24.67;19.97;;;7.20;1.00;;;;;;6282281;28;20229;-54
2022/03/29 04:25:11;;;;;;;23.10;20.37;;;7.20;1.00;;;;;;6281283;28;20248;-55
2022/03/29 04:28:15;;;;;;;33.07;22.03;;;7.10;1.00;;;;;;6281041;28;20234;-55
2022/03/29 04:31:18;;;;;;;27.03;20.53;;;7.10;1.00;;;;;;6279877;28;20308;-54
2022/03/29 04:34:21;;;;;;;22.10;19.63;;;7.20;1.00;;;;;;6282869;28;20263;-55
2022/03/29 04:37:24;;;;;;;28.00;19.90;;;7.10;1.00;;;;;;6273738;28;20237;-55
2022/03/29 04:40:27;;;;;;;23.47;19.73;;;7.20;1.00;;;;;;6274859;28;20248;-55
2022/03/29 04:43:31;;;;;;;24.13;20.13;;;7.20;1.00;;;;;;6274033;28;20245;-55
2022/03/29 04:46:34;;;;;;;25.23;20.47;;;7.20;1.00;;;;;;6278222;28;20576;-55
2022/03/29 04:49:37;;;;;;;26.03;20.00;;;7.10;1.00;;;;;;6282314;28;20243;-55
2022/03/29 04:52:44;;;;;;;25.13;19.03;;;7.10;1.00;;;;;;6284839;28;20608;-60
2022/03/29 04:55:46;;;;;;;27.70;19.73;;;7.10;1.00;;;;;;6271140;28;20236;-56
2022/03/29 04:58:50;;;;;;;26.67;20.73;;;7.20;1.00;;;;;;6283918;28;20236;-55
2022/03/29 05:01:53;;;;;;;26.17;21.10;;;7.10;1.00;;;;;;6287111;28;20609;-56
2022/03/29 05:04:56;;;;;;;25.70;19.50;;;7.10;1.00;;;;;;6282890;28;20617;-54
2022/03/29 05:07:59;;;;;;;31.03;21.83;;;7.10;1.00;;;;;;6282171;28;20267;-55
2022/03/29 05:11:02;;;;;;;25.00;19.70;;;7.10;1.00;;;;;;6293456;28;20253;-55
2022/03/29 05:14:07;;;;;;;24.93;20.57;;;7.00;1.00;;;;;;6283079;28;20327;-54
2022/03/29 05:17:10;;;;;;;25.57;20.50;;;7.00;1.00;;;;;;6282163;28;20257;-55
2022/03/29 05:20:15;;;;;;;27.10;20.07;;;7.00;1.00;;;;;;6280874;28;20564;-54
2022/03/29 05:23:18;;;;;;;28.07;21.30;;;7.00;1.00;;;;;;6276025;28;20458;-53
2022/03/29 05:26:21;;;;;;;29.90;20.63;;;7.10;1.00;;;;;;6287191;28;20294;-54
2022/03/29 05:29:28;;;;;;;24.90;19.93;;;7.00;1.00;;;;;;6280510;28;20305;-55
2022/03/29 05:32:40;;;;;;;27.63;20.30;;;7.00;1.00;;;;;;6279176;28;20236;-55
2022/03/29 05:35:43;;;;;;;28.00;20.83;;;7.00;1.00;;;;;;6281945;28;20234;-55
2022/03/29 05:38:50;;;;;;;32.57;21.43;;;7.00;1.00;;;;;;6291213;28;20249;-55
2022/03/29 05:41:52;;;;;;;34.73;22.40;;;6.90;1.00;;;;;;6279556;28;20706;-55
2022/03/29 05:44:56;;;;;;;30.00;21.37;;;7.20;1.00;;;;;;6285674;28;20344;-55
2022/03/29 05:51:29;;;;;;;30.80;21.53;;;7.00;1.00;;;;;;6281705;28;20503;-54
2022/03/29 05:54:31;;;;;;;34.73;22.77;;;7.00;1.00;;;;;;6285016;28;20585;-55
2022/03/29 05:57:34;;;;;;;31.47;21.60;;;7.40;1.00;;;;;;6280497;28;20316;-55
2022/03/29 06:00:38;;;;;;;27.37;21.40;;;7.10;1.00;;;;;;6286649;28;20237;-55
2022/03/29 06:03:45;;;;;;;35.93;22.83;;;7.00;1.00;;;;;;6257676;28;20657;-54
2022/03/29 06:06:47;;;;;;;30.57;22.43;;;7.00;1.00;;;;;;6259606;28;20233;-54
2022/03/29 06:09:50;;;;;;;35.57;22.10;;;7.00;1.00;;;;;;6265227;28;20753;-54
2022/03/29 06:12:54;;;;;;;30.27;22.23;;;7.00;1.00;;;;;;6266748;28;20288;-55
2022/03/29 06:16:00;;;;;;;30.07;22.47;;;7.10;1.00;;;;;;6286579;28;20733;-55
2022/03/29 06:19:02;;;;;;;32.17;23.43;;;7.10;1.00;;;;;;6256259;28;20257;-54
2022/03/29 06:22:05;;;;;;;29.87;21.43;;;7.20;1.00;;;;;;6263949;28;20356;-54
2022/03/29 06:25:09;;;;;;;36.13;22.70;;;7.20;1.00;;;;;;6252441;28;20325;-55
2022/03/29 06:28:14;;;;;;;37.40;22.43;;;7.20;1.00;;;;;;6259714;28;20244;-54
2022/03/29 06:31:18;;;;;;;34.87;22.13;;;7.10;1.00;;;;;;6257997;28;20235;-55
2022/03/29 06:34:20;;;;;;;31.30;22.40;;;7.20;1.00;;;;;;6265060;28;20240;-55
2022/03/29 06:37:23;;;;;;;35.27;22.73;;;7.20;1.00;;;;;;6261059;28;20237;-56
2022/03/29 06:40:27;;;;;;;36.27;22.47;;;7.30;1.00;;;;;;6277275;28;20685;-54
2022/03/29 06:43:30;;;;;;;37.20;22.93;;;7.30;1.00;;;;;;6265699;28;20290;-54
2022/03/29 06:46:35;;;;;;;31.13;22.07;;;7.40;1.00;;;;;;6268778;28;20304;-53
2022/03/29 06:49:38;;;;;;;36.47;21.93;;;7.40;1.00;;;;;;6256926;28;20768;-54
2022/03/29 06:52:42;;;;;;;32.37;21.20;;;7.50;1.00;;;;;;6272036;28;20242;-54
2022/03/29 06:55:46;;;;;;;37.13;22.07;;;7.60;1.00;;;;;;6259596;28;20241;-54
2022/03/29 06:58:48;;;;;;;32.63;21.37;;;7.70;1.00;;;;;;6264160;28;20262;-54
2022/03/29 07:01:52;;;;;;;33.10;21.30;;;7.80;1.00;;;;;;6261001;28;20477;-55
2022/03/29 07:04:56;;;;;;;32.10;21.43;;;7.80;1.00;;;;;;6253276;28;20305;-56
2022/03/29 07:08:00;;;;;;;30.30;20.17;;;7.90;1.00;;;;;;6251630;28;20729;-55
2022/03/29 07:11:21;;;;;;;31.73;20.07;;;8.00;1.00;;;;;;6280700;28;20243;-53
2022/03/29 07:14:24;;;;;;;26.27;19.20;;;8.00;1.00;;;;;;6279192;28;20332;-54
2022/03/29 07:17:28;;;;;;;27.77;18.57;;;8.00;1.00;;;;;;6284178;28;20320;-54
2022/03/29 07:20:31;;;;;;;27.07;18.87;;;8.00;1.00;;;;;;6283895;28;20363;-55
2022/03/29 07:23:34;;;;;;;26.20;18.43;;;8.10;1.00;;;;;;6286238;28;20510;-54
2022/03/29 07:26:37;;;;;;;30.43;18.20;;;8.20;1.00;;;;;;6284589;28;20387;-54
2022/03/29 07:29:41;;;;;;;24.77;17.13;;;8.40;1.00;;;;;;6284363;28;20252;-55
2022/03/29 07:32:47;;;;;;;26.27;16.63;;;8.50;1.00;;;;;;6283989;28;20236;-55
2022/03/29 07:35:50;;;;;;;24.97;16.97;;;8.50;1.00;;;;;;6283582;28;20247;-53
2022/03/29 07:38:52;;;;;;;24.57;17.23;;;8.50;1.00;;;;;;6278451;28;20324;-54
2022/03/29 07:41:56;;;;;;;23.37;16.47;;;8.50;1.00;;;;;;6288752;28;20237;-53
2022/03/29 07:44:59;;;;;;;22.27;16.50;;;8.50;1.00;;;;;;6279694;28;20327;-56
2022/03/29 07:48:04;;;;;;;20.97;15.03;;;8.40;1.00;;;;;;6277808;28;20287;-55
2022/03/29 07:51:27;;;;;;;21.10;14.73;;;8.40;1.00;;;;;;6287805;28;20237;-54
2022/03/29 07:54:30;;;;;;;24.77;16.33;;;8.40;1.00;;;;;;6283005;28;20241;-54
2022/03/29 07:57:33;;;;;;;20.70;15.20;;;8.50;1.00;;;;;;6282027;28;20236;-55
2022/03/29 08:00:50;;;;;;;22.13;15.30;;;8.60;1.00;;;;;;6285402;28;20225;-54
2022/03/29 08:03:55;;;;;;;22.27;15.30;;;8.70;1.00;;;;;;6277570;28;20245;-54
2022/03/29 08:06:58;;;;;;;19.27;14.47;;;8.80;1.00;;;;;;6276058;28;20249;-55
2022/03/29 08:10:02;;;;;;;18.67;14.37;;;9.00;1.00;;;;;;6283435;28;20460;-55
2022/03/29 08:13:07;;;;;;;21.33;14.50;;;9.00;1.00;;;;;;6281830;28;20261;-55
2022/03/29 08:16:10;;;;;;;20.30;14.40;;;9.10;1.00;;;;;;6287371;28;20295;-53
2022/03/29 08:19:15;;;;;;;18.57;14.13;;;9.10;1.00;;;;;;6289358;28;20778;-55
2022/03/29 08:22:18;;;;;;;22.27;15.87;;;9.10;1.00;;;;;;6280452;28;20332;-54
2022/03/29 08:25:21;;;;;;;17.83;14.80;;;9.20;1.00;;;;;;6282736;28;20605;-55
2022/03/29 08:28:24;;;;;;;18.70;15.10;;;9.30;1.00;;;;;;6279535;28;20326;-54
2022/03/29 08:31:27;;;;;;;21.03;15.33;;;9.40;1.00;;;;;;6273682;28;20260;-54
2022/03/29 08:34:32;;;;;;;20.90;15.10;;;9.30;1.00;;;;;;6282912;28;20252;-55
2022/03/29 08:37:35;;;;;;;19.97;14.37;;;9.30;1.00;;;;;;6279610;28;20237;-55
2022/03/29 08:40:43;;;;;;;17.47;14.00;;;9.30;1.00;;;;;;6283657;28;20331;-54
2022/03/29 08:43:49;;;;;;;20.13;14.50;;;9.30;1.00;;;;;;6282970;28;20471;-55
2022/03/29 08:46:53;;;;;;;17.63;13.73;;;9.30;1.00;;;;;;6280839;28;20705;-55
2022/03/29 08:49:57;;;;;;;15.57;13.87;;;9.40;1.00;;;;;;6282735;28;20312;-56
2022/03/29 08:53:01;;;;;;;16.13;13.90;;;9.50;1.00;;;;;;6281510;28;20422;-55
2022/03/29 08:56:04;;;;;;;20.87;14.63;;;9.70;1.00;;;;;;6279535;28;20360;-55
2022/03/29 08:59:07;;;;;;;23.33;14.00;;;9.90;1.00;;;;;;6281323;28;20339;-55
2022/03/29 09:02:11;;;;;;;18.40;14.83;;;10.10;1.00;;;;;;6281999;28;20728;-54
2022/03/29 09:05:17;;;;;;;19.27;14.13;;;10.20;1.00;;;;;;6274704;28;20241;-54
2022/03/29 09:08:20;;;;;;;18.73;14.67;;;10.20;1.00;;;;;;6285010;28;20314;-56
2022/03/29 09:11:22;;;;;;;18.67;14.63;;;10.20;1.00;;;;;;6281525;28;20233;-55
2022/03/29 09:14:28;;;;;;;22.43;14.80;;;10.20;1.00;;;;;;6285235;28;20306;-55
2022/03/29 09:17:32;;;;;;;18.93;12.83;;;10.20;1.00;;;;;;6295926;28;20233;-54
2022/03/29 09:20:44;;;;;;;18.67;13.13;;;10.30;1.00;;;;;;6287578;28;20249;-54
2022/03/29 09:24:05;;;;;;;20.70;13.80;;;10.40;1.00;;;;;;6283535;28;20245;-56
2022/03/29 09:27:10;;;;;;;22.77;14.00;;;10.40;1.00;;;;;;6289053;28;20225;-55
2022/03/29 09:30:14;;;;;;;19.03;14.10;;;10.50;1.00;;;;;;6285603;28;20269;-54
2022/03/29 09:33:20;;;;;;;22.33;13.77;;;10.70;1.00;;;;;;6284627;28;20511;-54
2022/03/29 09:36:24;;;;;;;15.77;13.87;;;10.90;1.00;;;;;;6286035;28;20805;-54
2022/03/29 09:39:44;;;;;;;30.03;15.57;;;11.00;1.00;;;;;;6285032;28;20264;-54
2022/03/29 09:43:01;;;;;;;20.77;15.93;;;11.00;1.00;;;;;;6277785;28;20713;-54
2022/03/29 09:46:04;;;;;;;25.77;16.83;;;11.00;1.00;;;;;;6282699;28;20651;-54
2022/03/29 09:49:07;;;;;;;22.40;16.03;;;10.90;1.00;;;;;;6282056;28;20405;-56
2022/03/29 09:52:15;;;;;;;20.83;15.87;;;10.90;1.00;;;;;;6286565;28;20378;-55
2022/03/29 09:55:21;;;;;;;23.00;15.93;;;11.00;1.00;;;;;;6278778;28;20272;-55
2022/03/29 09:58:24;;;;;;;19.37;15.30;;;11.10;1.00;;;;;;6281107;28;20721;-55
2022/03/29 10:01:27;;;;;;;20.70;15.17;;;11.10;1.00;;;;;;6286314;28;20503;-55
2022/03/29 10:04:31;;;;;;;20.70;15.77;;;11.00;1.00;;;;;;6285179;28;20722;-55
2022/03/29 10:07:41;;;;;;;25.73;14.80;;;10.90;1.00;;;;;;6283484;28;20237;-54
2022/03/29 10:10:45;;;;;;;19.53;14.83;;;11.00;1.00;;;;;;6295193;28;20237;-53
2022/03/29 10:13:53;;;;;;;20.90;14.87;;;11.20;1.00;;;;;;6284734;28;20241;-53
2022/03/29 10:16:57;;;;;;;19.40;14.37;;;11.30;1.00;;;;;;6287355;28;20313;-54
2022/03/29 10:20:01;;;;;;;17.43;13.70;;;11.20;1.00;;;;;;6287357;28;20818;-54
2022/03/29 10:23:06;;;;;;;16.47;13.40;;;11.20;1.00;;;;;;6281519;28;20503;-54
2022/03/29 10:26:10;;;;;;;16.37;13.73;;;11.50;1.00;;;;;;6284944;28;20923;-54
2022/03/29 10:29:13;;;;;;;18.37;14.10;;;11.60;1.00;;;;;;6280712;28;20717;-54
2022/03/29 10:32:29;;;;;;;15.97;13.33;;;11.50;1.00;;;;;;6284822;28;20248;-55
2022/03/29 10:35:34;;;;;;;18.77;13.43;;;11.70;1.00;;;;;;6284668;28;20710;-55
2022/03/29 10:38:57;;;;;;;16.80;13.50;;;11.90;1.00;;;;;;6283892;28;20237;-55
2022/03/29 10:42:00;;;;;;;18.77;14.13;;;11.80;1.00;;;;;;6284513;28;20236;-54
2022/03/29 10:45:23;;;;;;;16.60;13.37;;;11.90;1.00;;;;;;6287196;28;20756;-55
2022/03/29 10:48:27;;;;;;;18.60;13.50;;;12.20;1.00;;;;;;6287069;28;20911;-55
2022/03/29 10:51:30;;;;;;;15.63;12.70;;;12.30;1.00;;;;;;6287738;28;20254;-54
2022/03/29 10:54:36;;;;;;;18.17;13.43;;;12.50;1.00;;;;;;6285162;28;20320;-55
2022/03/29 10:57:39;;;;;;;19.80;14.97;;;12.50;1.00;;;;;;6282159;28;20229;-54
2022/03/29 11:00:43;;;;;;;17.60;15.63;;;12.50;1.00;;;;;;6286834;28;20303;-54
2022/03/29 11:03:59;;;;;;;18.17;14.67;;;12.30;1.00;;;;;;6286751;28;20330;-56
2022/03/29 11:07:20;;;;;;;17.77;14.00;;;12.20;1.00;;;;;;6272125;28;20572;-56
2022/03/29 11:10:38;;;;;;;16.83;14.67;;;12.50;1.00;;;;;;6285099;28;20240;-55
2022/03/29 11:13:41;;;;;;;24.43;14.13;;;12.50;1.00;;;;;;6288877;28;20264;-55
2022/03/29 11:16:43;;;;;;;17.57;12.93;;;12.60;1.00;;;;;;6281273;28;21007;-55
2022/03/29 11:19:48;;;;;;;19.33;12.77;;;12.70;1.00;;;;;;6290632;28;20268;-56
2022/03/29 11:22:51;;;;;;;11.70;10.53;;;12.60;1.00;;;;;;6286006;28;20316;-55
2022/03/29 11:25:55;;;;;;;15.40;10.97;;;12.70;1.00;;;;;;6279816;28;20287;-55
2022/03/29 11:29:00;;;;;;;12.40;11.10;;;12.80;99.90;;;;;;6280844;28;20229;-54
2022/03/29 11:32:04;;;;;;;15.53;11.10;;;12.80;99.90;;;;;;6266116;28;20382;-54
2022/03/29 11:35:09;;;;;;;11.10;9.90;;;13.00;99.90;;;;;;6259335;28;20367;-53
2022/03/29 11:38:15;;;;;;;12.10;9.83;;;13.10;99.90;;;;;;6281629;28;20604;-55
2022/03/29 11:41:24;;;;;;;10.50;9.47;;;13.20;99.90;;;;;;6283585;28;20233;-55
2022/03/29 11:44:27;;;;;;;10.03;9.13;;;13.30;99.90;;;;;;6281494;28;20238;-55
2022/03/29 11:47:30;;;;;;;10.10;9.30;;;13.40;99.90;;;;;;6286335;28;20399;-56
2022/03/29 11:50:39;;;;;;;11.63;8.17;;;13.20;99.90;;;;;;6280885;28;20513;-55
2022/03/29 11:53:41;;;;;;;8.13;7.37;;;13.30;99.90;;;;;;6289337;28;20315;-55
2022/03/29 11:56:48;;;;;;;6.77;6.17;;;13.30;99.90;;;;;;6280688;28;20286;-54
2022/03/29 11:59:52;;;;;;;7.50;6.90;;;13.40;99.90;;;;;;6281548;28;20304;-55
2022/03/29 12:02:59;;;;;;;13.10;7.43;;;13.00;99.90;;;;;;6282728;28;20249;-55
2022/03/29 12:06:08;;;;;;;8.20;6.23;;;12.90;99.90;;;;;;6275495;28;20240;-55
2022/03/29 12:09:16;;;;;;;6.77;6.13;;;13.10;99.90;;;;;;6285259;28;20232;-55
2022/03/29 12:12:20;;;;;;;8.87;7.10;;;13.20;99.90;;;;;;6282195;28;20303;-56
2022/03/29 12:15:23;;;;;;;7.63;6.53;;;13.30;99.90;;;;;;6280980;28;20333;-56
2022/03/29 12:18:41;;;;;;;14.00;7.27;;;13.30;99.90;;;;;;6289182;28;20244;-56
2022/03/29 12:21:46;;;;;;;7.47;6.77;;;13.20;99.90;;;;;;6280327;28;20275;-54
2022/03/29 12:24:54;;;;;;;6.10;5.27;;;13.20;99.90;;;;;;6277092;28;20404;-54
2022/03/29 12:27:59;;;;;;;11.53;5.73;;;13.40;99.90;;;;;;6277968;28;20282;-54
2022/03/29 12:31:03;;;;;;;8.80;6.20;;;13.50;99.90;;;;;;6277968;28;20384;-55
2022/03/29 12:34:07;;;;;;;10.07;4.97;;;13.60;99.90;;;;;;6283834;28;20237;-55
2022/03/29 12:37:14;;;;;;;8.40;4.90;;;13.70;99.90;;;;;;6280852;28;20253;-54
2022/03/29 12:40:16;;;;;;;5.43;5.00;;;13.70;99.90;;;;;;6281723;28;20221;-54
2022/03/29 12:43:27;;;;;;;6.27;4.87;;;13.80;99.90;;;;;;6278722;28;20330;-54
2022/03/29 12:46:30;;;;;;;9.47;4.90;;;13.90;99.90;;;;;;6282067;28;20256;-55
2022/03/29 12:49:47;;;;;;;8.80;5.10;;;13.80;99.90;;;;;;6281859;28;20242;-54
2022/03/29 12:52:50;;;;;;;8.17;4.90;;;13.90;99.90;;;;;;6284150;28;20248;-55
2022/03/29 12:55:56;;;;;;;5.57;4.90;;;13.80;99.90;;;;;;6275647;28;20308;-54
2022/03/29 12:59:01;;;;;;;5.40;4.67;;;13.70;99.90;;;;;;6280493;28;20769;-54
2022/03/29 13:02:14;;;;;;;8.07;6.43;;;13.70;99.90;;;;;;6276989;28;20785;-55
2022/03/29 13:05:18;;;;;;;13.77;6.10;;;13.90;99.90;;;;;;6278147;28;20602;-54
2022/03/29 13:08:22;;;;;;;9.90;6.47;;;14.00;99.90;;;;;;6292681;28;21025;-55
2022/03/29 13:11:25;;;;;;;10.73;7.07;;;14.10;99.90;;;;;;6276219;28;20320;-55
2022/03/29 13:14:36;;;;;;;8.07;6.67;;;13.90;99.90;;;;;;6283686;28;20576;-55
2022/03/29 13:17:38;;;;;;;11.93;6.80;;;14.00;99.90;;;;;;6283128;28;20447;-54
2022/03/29 13:20:41;;;;;;;7.27;6.57;;;13.80;99.90;;;;;;6276738;28;20318;-54
2022/03/29 13:23:45;;;;;;;13.53;7.03;;;13.40;99.90;;;;;;6277705;28;20516;-55
2022/03/29 13:26:51;;;;;;;7.80;6.20;;;13.50;99.90;;;;;;6279731;28;20609;-55
2022/03/29 13:29:55;;;;;;;7.73;6.07;;;13.60;99.90;;;;;;6281174;28;20244;-54
2022/03/29 13:32:58;;;;;;;13.07;6.53;;;13.70;99.90;;;;;;6278978;28;20600;-55
2022/03/29 13:36:07;;;;;;;6.87;5.90;;;13.50;99.90;;;;;;6274695;28;20637;-54
2022/03/29 13:39:15;;;;;;;6.37;5.83;;;13.20;99.90;;;;;;6285597;28;20316;-54
2022/03/29 13:42:38;;;;;;;7.53;5.60;;;13.20;99.90;;;;;;6280719;28;20718;-54
2022/03/29 13:45:46;;;;;;;8.87;6.20;;;13.20;99.90;;;;;;6281508;28;20316;-55
2022/03/29 13:48:49;;;;;;;9.47;5.83;;;13.10;99.90;;;;;;6280706;28;20237;-54
2022/03/29 13:51:51;;;;;;;7.20;5.53;;;13.00;99.90;;;;;;6284592;28;20344;-54
2022/03/29 13:54:54;;;;;;;10.07;6.03;;;13.00;99.90;;;;;;6282989;28;20328;-55
2022/03/29 13:57:57;;;;;;;10.07;5.43;;;13.00;99.90;;;;;;6274037;28;20434;-55
2022/03/29 14:01:01;;;;;;;6.23;5.67;;;12.90;99.90;;;;;;6277714;28;20241;-55
2022/03/29 14:04:05;;;;;;;9.27;5.37;;;12.90;99.90;;;;;;6285574;28;20745;-55
2022/03/29 14:07:09;;;;;;;7.70;5.93;;;12.80;99.90;;;;;;6279079;28;20625;-53
2022/03/29 14:10:14;;;;;;;6.60;5.90;;;12.70;99.90;;;;;;6287059;28;20428;-54
2022/03/29 14:13:16;;;;;;;8.67;5.93;;;12.80;99.90;;;;;;6286370;28;20384;-54
2022/03/29 14:16:21;;;;;;;8.63;5.90;;;12.60;99.90;;;;;;6287389;28;20316;-54
2022/03/29 14:19:24;;;;;;;10.67;6.70;;;12.70;99.90;;;;;;6285637;28;20229;-53
2022/03/29 14:22:32;;;;;;;7.93;5.63;;;12.70;99.90;;;;;;6288538;28;20241;-55
2022/03/29 14:25:37;;;;;;;5.30;4.80;;;12.80;99.90;;;;;;6283053;28;20233;-55
2022/03/29 14:28:40;;;;;;;5.00;4.53;;;12.80;99.90;;;;;;6285276;28;20241;-53
2022/03/29 14:31:47;;;;;;;9.13;4.90;;;12.80;99.90;;;;;;6287090;28;20828;-55
2022/03/29 14:34:50;;;;;;;7.23;4.87;;;12.80;99.90;;;;;;6281675;28;20234;-54
2022/03/29 14:37:53;;;;;;;5.10;4.60;;;12.80;99.90;;;;;;6291627;28;20232;-55
2022/03/29 14:40:56;;;;;;;6.57;4.00;;;12.90;99.90;;;;;;6286871;28;20244;-55
2022/03/29 14:43:59;;;;;;;7.40;4.10;;;12.90;99.90;;;;;;6280955;28;20236;-54
2022/03/29 14:47:06;;;;;;;5.30;4.03;;;13.00;99.90;;;;;;6283435;28;20750;-55
2022/03/29 14:50:11;;;;;;;6.20;4.27;;;13.00;99.90;;;;;;6286509;28;20744;-55
2022/03/29 14:53:15;;;;;;;4.83;4.33;;;13.00;99.90;;;;;;6288140;28;20716;-54
2022/03/29 14:56:17;;;;;;;6.93;3.80;;;13.10;99.90;;;;;;6284785;28;20252;-54
2022/03/29 14:59:20;;;;;;;3.47;3.17;;;13.30;99.90;;;;;;6287746;28;20237;-54
2022/03/29 15:02:24;;;;;;;3.70;3.23;;;13.30;99.90;;;;;;6282595;28;20793;-55
2022/03/29 15:05:27;;;;;;;5.43;3.33;;;13.30;99.90;;;;;;6285906;28;20299;-55
2022/03/29 15:08:30;;;;;;;5.37;3.67;;;13.40;99.90;;;;;;6283846;28;20237;-55
2022/03/29 15:11:33;;;;;;;3.70;3.40;;;13.50;99.90;;;;;;6279706;28;20312;-55
2022/03/29 15:14:35;;;;;;;11.03;3.30;;;13.50;99.90;;;;;;6276150;28;20237;-54
2022/03/29 15:17:39;;;;;;;3.47;3.13;;;13.40;99.90;;;;;;6286799;28;20304;-55
2022/03/29 15:20:43;;;;;;;4.77;2.93;;;13.60;99.90;;;;;;6282357;28;20237;-54
2022/03/29 15:23:45;;;;;;;4.10;3.30;;;13.50;99.90;;;;;;6280189;28;20328;-55
2022/03/29 15:26:48;;;;;;;4.97;3.20;;;13.50;99.90;;;;;;6276284;28;20427;-54
2022/03/29 15:29:52;;;;;;;3.50;3.30;;;13.50;99.90;;;;;;6281958;28;20698;-55
2022/03/29 15:32:57;;;;;;;8.03;4.03;;;13.40;99.90;;;;;;6288188;28;20298;-54
2022/03/29 15:36:00;;;;;;;4.60;3.97;;;13.30;99.90;;;;;;6282485;28;20749;-55
2022/03/29 15:39:04;;;;;;;7.30;4.10;;;13.20;99.90;;;;;;6283976;28;20286;-56
2022/03/29 15:42:09;;;;;;;4.80;3.60;;;13.00;99.90;;;;;;6285047;28;20233;-55
2022/03/29 15:45:13;;;;;;;6.17;4.07;;;12.80;99.90;;;;;;6277455;28;20233;-55
2022/03/29 15:48:17;;;;;;;4.20;3.90;;;12.80;99.90;;;;;;6288064;28;20613;-55
2022/03/29 15:51:22;;;;;;;5.93;3.67;;;12.70;99.90;;;;;;6279178;28;20261;-55
2022/03/29 15:54:26;;;;;;;6.43;3.97;;;12.60;99.90;;;;;;6282521;28;20471;-55
2022/03/29 15:57:30;;;;;;;5.47;4.67;;;12.60;99.90;;;;;;6285937;28;20251;-55
2022/03/29 16:00:34;;;;;;;9.17;4.53;;;12.40;99.90;;;;;;6280889;28;20307;-53
2022/03/29 16:03:38;;;;;;;5.93;4.47;;;12.30;99.90;;;;;;6283785;28;20249;-55